createdAt,value
2022-12-14T00:02:02.744Z,96526.97
2022-12-14T00:04:31.412Z,96509.59
2022-12-14T00:07:01.020Z,96506.19
2022-12-14T00:09:29.256Z,96495.91
2022-12-14T00:11:57.496Z,96494.34
2022-12-14T00:14:25.979Z,96504.81
2022-12-14T00:16:54.200Z,96519.56
2022-12-14T00:19:22.524Z,96512.81
2022-12-14T00:21:50.740Z,96505.13
2022-12-14T00:24:20.588Z,96498.44
2022-12-14T00:26:48.792Z,96504.66
2022-12-14T00:29:17.041Z,96502.06
2022-12-14T00:31:48.842Z,96503.13
2022-12-14T00:34:17.726Z,96505.72
2022-12-14T00:36:45.951Z,96506.91
2022-12-14T00:39:14.221Z,96490.63
2022-12-14T00:41:44.331Z,96480.44
2022-12-14T00:44:12.563Z,96479.03
2022-12-14T00:46:40.946Z,96486.13
2022-12-14T00:49:09.259Z,96492.22
2022-12-14T00:51:37.652Z,96482.69
2022-12-14T00:54:06.465Z,96488.91
2022-12-14T00:56:34.776Z,96510.38
2022-12-14T00:59:04.496Z,96514.66
2022-12-14T01:01:32.920Z,96511.31
2022-12-14T01:04:15.178Z,96509.56
2022-12-14T01:06:44.077Z,96509.47
2022-12-14T01:09:12.523Z,96499.91
2022-12-14T01:11:41.201Z,96505.00
2022-12-14T01:14:12.297Z,96516.22
2022-12-14T01:16:40.816Z,96510.94
2022-12-14T01:19:09.329Z,96511.69
2022-12-14T01:21:37.647Z,96504.81
2022-12-14T01:24:07.177Z,96503.16
2022-12-14T01:26:40.925Z,96504.00
2022-12-14T01:29:12.985Z,96504.91
2022-12-14T01:31:41.366Z,96509.91
2022-12-14T01:34:10.971Z,96510.66
2022-12-14T01:36:39.972Z,96504.50
2022-12-14T01:39:13.743Z,96502.66
2022-12-14T01:41:44.594Z,96497.47
2022-12-14T01:44:55.457Z,96521.78
2022-12-14T01:47:30.728Z,96522.78
2022-12-14T01:50:04.817Z,96532.34
2022-12-14T01:52:39.645Z,96528.91
2022-12-14T01:55:12.634Z,96511.59
2022-12-14T01:57:46.421Z,96508.16
2022-12-14T02:00:17.377Z,96502.94
2022-12-14T02:02:51.000Z,96485.53
2022-12-14T02:05:22.218Z,96477.00
2022-12-14T02:07:53.296Z,96470.16
2022-12-14T02:10:23.873Z,96466.72
2022-12-14T02:13:00.647Z,96459.13
2022-12-14T02:15:31.689Z,96453.84
2022-12-14T02:18:00.615Z,96453.84
2022-12-14T02:20:36.453Z,96460.69
2022-12-14T02:23:38.985Z,96452.09
2022-12-14T02:26:47.952Z,96441.81
2022-12-14T02:29:49.129Z,96447.09
2022-12-14T02:32:43.370Z,96445.50
2022-12-14T02:35:20.066Z,96437.53
2022-12-14T02:37:55.257Z,96424.53
2022-12-14T02:40:31.092Z,96420.84
2022-12-14T02:43:13.141Z,96418.97
2022-12-14T02:45:47.919Z,96415.34
2022-12-14T02:48:20.578Z,96404.75
2022-12-14T02:50:58.414Z,96411.50
2022-12-14T02:53:32.541Z,96411.59
2022-12-14T02:56:07.450Z,96415.84
2022-12-14T02:58:40.372Z,96433.03
2022-12-14T03:01:14.821Z,96438.94
2022-12-14T03:03:44.041Z,96437.06
2022-12-14T03:06:26.155Z,96436.88
2022-12-14T03:09:01.057Z,96434.28
2022-12-14T03:11:36.762Z,96436.78
2022-12-14T03:14:11.813Z,96439.06
2022-12-14T03:16:44.580Z,96436.47
2022-12-14T03:19:19.381Z,96416.44
2022-12-14T03:21:51.616Z,96408.66
2022-12-14T03:24:29.081Z,96402.31
2022-12-14T03:27:02.736Z,96402.81
2022-12-14T03:29:38.864Z,96401.06
2022-12-14T03:32:12.908Z,96392.22
2022-12-14T03:34:47.380Z,96382.56
2022-12-14T03:37:19.776Z,96372.19
2022-12-14T03:39:49.158Z,96367.09
2022-12-14T03:42:24.740Z,96372.09
2022-12-14T03:45:03.345Z,96372.94
2022-12-14T03:47:59.708Z,96376.22
2022-12-14T03:50:37.110Z,96379.56
2022-12-14T03:53:11.141Z,96388.91
2022-12-14T03:55:49.266Z,96374.06
2022-12-14T03:58:37.613Z,96360.03
2022-12-14T04:01:12.762Z,96349.53
2022-12-14T04:03:50.334Z,96345.19
2022-12-14T04:06:29.427Z,96345.91
2022-12-14T04:09:08.826Z,96356.31
2022-12-14T04:12:01.426Z,96362.19
2022-12-14T04:14:53.838Z,96357.75
2022-12-14T04:17:51.035Z,96363.88
2022-12-14T04:20:25.577Z,96356.00
2022-12-14T04:23:00.000Z,96356.69
2022-12-14T04:25:53.543Z,96368.56
2022-12-14T04:28:42.572Z,96357.22
2022-12-14T04:31:13.682Z,96352.13
2022-12-14T04:33:51.219Z,96359.94
2022-12-14T04:36:27.014Z,96352.03
2022-12-14T04:39:01.396Z,96338.81
2022-12-14T04:41:34.422Z,96336.13
2022-12-14T04:44:09.932Z,96343.81
2022-12-14T04:46:40.847Z,96348.78
2022-12-14T04:49:18.318Z,96340.06
2022-12-14T04:51:58.226Z,96338.06
2022-12-14T04:54:35.733Z,96337.13
2022-12-14T04:57:17.384Z,96326.53
2022-12-14T04:59:48.240Z,96334.09
2022-12-14T05:02:26.868Z,96326.09
2022-12-14T05:05:08.930Z,96321.63
2022-12-14T05:07:49.548Z,96334.53
2022-12-14T05:10:24.272Z,96326.63
2022-12-14T05:13:01.994Z,96332.50
2022-12-14T05:15:36.358Z,96334.91
2022-12-14T05:18:05.936Z,96332.09
2022-12-14T05:20:34.264Z,96329.38
2022-12-14T05:23:03.929Z,96322.19
2022-12-14T05:25:32.399Z,96315.25
2022-12-14T05:28:00.662Z,96314.19
2022-12-14T05:30:28.961Z,96321.88
2022-12-14T05:32:57.440Z,96307.81
2022-12-14T05:35:25.811Z,96313.97
2022-12-14T05:37:54.055Z,96315.41
2022-12-14T05:40:23.721Z,96296.28
2022-12-14T05:42:55.671Z,96305.72
2022-12-14T05:45:24.413Z,96291.06
2022-12-14T05:47:52.636Z,96293.31
2022-12-14T05:50:20.862Z,96289.91
2022-12-14T05:52:49.096Z,96287.31
2022-12-14T05:55:18.249Z,96281.16
2022-12-14T05:57:47.867Z,96272.41
2022-12-14T06:00:17.235Z,96262.94
2022-12-14T06:02:45.521Z,96256.91
2022-12-14T06:05:13.825Z,96255.16
2022-12-14T06:07:42.060Z,96261.19
2022-12-14T06:10:11.148Z,96252.66
2022-12-14T06:12:39.502Z,96256.09
2022-12-14T06:15:10.359Z,96263.78
2022-12-14T06:17:38.614Z,96247.34
2022-12-14T06:20:08.548Z,96251.59
2022-12-14T06:22:36.767Z,96251.00
2022-12-14T06:25:05.552Z,96244.97
2022-12-14T06:27:33.873Z,96238.91
2022-12-14T06:30:02.249Z,96223.31
2022-12-14T06:32:32.270Z,96226.06
2022-12-14T06:35:00.516Z,96226.19
2022-12-14T06:37:28.753Z,96235.75
2022-12-14T06:39:57.006Z,96243.44
2022-12-14T06:42:25.283Z,96244.81
2022-12-14T06:44:53.520Z,96243.53
2022-12-14T06:47:21.786Z,96247.19
2022-12-14T06:49:51.642Z,96235.22
2022-12-14T06:52:26.541Z,96240.09
2022-12-14T06:54:55.191Z,96233.25
2022-12-14T06:57:23.557Z,96221.09
2022-12-14T06:59:52.085Z,96201.19
2022-12-14T07:02:20.809Z,96201.94
2022-12-14T07:04:50.684Z,96197.56
2022-12-14T07:07:18.955Z,96198.59
2022-12-14T07:09:47.241Z,96198.50
2022-12-14T07:12:15.518Z,96188.94
2022-12-14T07:14:43.777Z,96198.50
2022-12-14T07:17:12.131Z,96207.84
2022-12-14T07:19:40.365Z,96216.34
2022-12-14T07:22:09.953Z,96215.66
2022-12-14T07:24:38.357Z,96231.75
2022-12-14T07:27:06.753Z,96228.91
2022-12-14T07:29:35.231Z,96220.16
2022-12-14T07:32:03.618Z,96214.72
2022-12-14T07:34:32.083Z,96212.88
2022-12-14T07:37:00.395Z,96186.97
2022-12-14T07:39:30.247Z,96180.69
2022-12-14T07:41:58.467Z,96180.81
2022-12-14T07:44:26.726Z,96186.84
2022-12-14T07:46:55.378Z,96187.47
2022-12-14T07:49:23.662Z,96188.16
2022-12-14T07:51:52.997Z,96187.13
2022-12-14T07:54:21.533Z,96183.34
2022-12-14T07:56:51.170Z,96185.09
2022-12-14T07:59:19.563Z,96175.41
2022-12-14T08:01:47.944Z,96166.66
2022-12-14T08:04:19.267Z,96184.53
2022-12-14T08:06:48.822Z,96181.94
2022-12-14T08:09:20.127Z,96200.63
2022-12-14T08:11:49.967Z,96198.75
2022-12-14T08:14:20.100Z,96185.75
2022-12-14T08:16:50.675Z,96181.97
2022-12-14T08:19:20.170Z,96172.41
2022-12-14T08:21:48.616Z,96176.53
2022-12-14T08:24:17.847Z,96174.72
2022-12-14T08:26:49.027Z,96185.03
2022-12-14T08:29:19.905Z,96181.50
2022-12-14T08:31:48.388Z,96191.69
2022-12-14T08:34:22.047Z,96174.03
2022-12-14T08:36:50.965Z,96155.72
2022-12-14T08:39:19.260Z,96146.97
2022-12-14T08:41:47.574Z,96151.94
2022-12-14T08:44:18.134Z,96161.63
2022-12-14T08:46:48.007Z,96167.34
2022-12-14T08:49:16.560Z,96158.56
2022-12-14T08:51:44.859Z,96145.31
2022-12-14T08:54:13.178Z,96157.13
2022-12-14T08:56:41.516Z,96156.22
2022-12-14T08:59:24.484Z,96160.47
2022-12-14T09:01:59.965Z,96160.34
2022-12-14T09:04:28.570Z,96157.75
2022-12-14T09:06:57.521Z,96164.47
2022-12-14T09:09:25.917Z,96159.28
2022-12-14T09:11:54.192Z,96159.16
2022-12-14T09:14:22.553Z,96148.06
2022-12-14T09:16:50.825Z,96133.34
2022-12-14T09:19:20.554Z,96142.00
2022-12-14T09:21:48.830Z,96142.72
2022-12-14T09:24:17.093Z,96152.78
2022-12-14T09:26:47.015Z,96145.53
2022-12-14T09:29:17.036Z,96134.19
2022-12-14T09:31:45.985Z,96141.78
2022-12-14T09:34:14.393Z,96131.34
2022-12-14T09:36:44.036Z,96114.78
2022-12-14T09:39:14.924Z,96104.34
2022-12-14T09:42:00.533Z,96107.53
2022-12-14T09:44:49.812Z,96113.56
2022-12-14T09:47:22.275Z,96097.00
2022-12-14T09:49:55.807Z,96094.16
2022-12-14T09:52:35.677Z,96078.50
2022-12-14T09:55:08.721Z,96070.69
2022-12-14T09:57:41.083Z,96059.34
2022-12-14T10:00:18.141Z,96048.09
2022-12-14T10:03:17.056Z,96049.63
2022-12-14T10:06:19.034Z,96041.94
2022-12-14T10:08:55.985Z,96038.63
2022-12-14T10:11:33.405Z,96031.88
2022-12-14T10:14:17.080Z,96022.28
2022-12-14T10:16:55.725Z,96011.63
2022-12-14T10:19:39.284Z,95992.56
2022-12-14T10:22:14.038Z,95997.53
2022-12-14T10:24:46.474Z,95995.63
2022-12-14T10:27:23.535Z,95994.44
2022-12-14T10:30:00.414Z,95975.13
2022-12-14T10:32:34.769Z,95976.66
2022-12-14T10:35:14.981Z,95979.13
2022-12-14T10:37:46.413Z,95970.69
2022-12-14T10:40:33.532Z,95968.56
2022-12-14T10:43:24.840Z,95968.44
2022-12-14T10:46:01.074Z,95972.56
2022-12-14T10:48:40.974Z,95966.84
2022-12-14T10:51:15.375Z,95962.06
2022-12-14T10:53:51.770Z,95951.38
2022-12-14T10:56:27.665Z,95964.75
2022-12-14T10:59:26.310Z,95963.66
2022-12-14T11:02:02.378Z,95944.59
2022-12-14T11:04:35.146Z,95929.63
2022-12-14T11:07:07.602Z,95933.53
2022-12-14T11:09:37.360Z,95919.28
2022-12-14T11:12:09.730Z,95919.84
2022-12-14T11:14:38.526Z,95923.13
2022-12-14T11:17:06.979Z,95917.53
2022-12-14T11:19:37.538Z,95925.81
2022-12-14T11:22:17.145Z,95919.50
2022-12-14T11:24:51.390Z,95906.31
2022-12-14T11:27:22.958Z,95908.66
2022-12-14T11:29:52.488Z,95890.41
2022-12-14T11:32:24.717Z,95892.19
2022-12-14T11:34:59.343Z,95887.78
2022-12-14T11:37:30.245Z,95887.53
2022-12-14T11:40:01.237Z,95881.34
2022-12-14T11:42:31.446Z,95882.19
2022-12-14T11:45:30.365Z,95888.25
2022-12-14T11:48:22.308Z,95886.84
2022-12-14T11:50:54.643Z,95896.88
2022-12-14T11:53:24.353Z,95882.75
2022-12-14T11:55:58.666Z,95892.09
2022-12-14T11:58:33.637Z,95892.81
2022-12-14T12:01:06.544Z,95892.66
2022-12-14T12:03:39.342Z,95886.34
2022-12-14T12:06:12.470Z,95892.28
2022-12-14T12:08:42.520Z,95880.03
2022-12-14T12:11:19.438Z,95873.75
2022-12-14T12:13:53.881Z,95878.69
2022-12-14T12:16:24.413Z,95875.97
2022-12-14T12:18:57.584Z,95878.44
2022-12-14T12:21:30.419Z,95878.31
2022-12-14T12:24:04.192Z,95878.16
2022-12-14T12:26:38.031Z,95890.81
2022-12-14T12:29:15.099Z,95899.44
2022-12-14T12:31:49.912Z,95906.22
2022-12-14T12:34:24.262Z,95903.34
2022-12-14T12:37:24.878Z,95898.78
2022-12-14T12:39:47.008Z,95899.50
2022-12-14T12:42:29.419Z,95896.88
2022-12-14T12:45:06.735Z,95881.09
2022-12-14T12:47:47.219Z,95875.59
2022-12-14T12:50:19.652Z,95870.25
2022-12-14T12:53:02.432Z,95864.75
2022-12-14T12:55:36.764Z,95859.53
2022-12-14T12:58:09.792Z,95855.81
2022-12-14T13:00:41.662Z,95853.91
2022-12-14T13:03:18.579Z,95845.81
2022-12-14T13:05:49.017Z,95843.88
2022-12-14T13:08:25.306Z,95836.72
2022-12-14T13:11:24.580Z,95844.44
2022-12-14T13:13:49.452Z,95835.22
2022-12-14T13:16:27.350Z,95840.44
2022-12-14T13:19:25.479Z,95850.63
2022-12-14T13:21:54.582Z,95849.09
2022-12-14T13:24:25.048Z,95837.69
2022-12-14T13:27:35.027Z,95836.88
2022-12-14T13:30:22.232Z,95842.34
2022-12-14T13:33:17.185Z,95837.97
2022-12-14T13:36:33.651Z,95841.38
2022-12-14T13:39:46.534Z,95827.38
2022-12-14T13:42:32.061Z,95821.34
2022-12-14T13:45:02.692Z,95817.63
2022-12-14T13:47:40.059Z,95813.09
2022-12-14T13:50:35.784Z,95813.09
2022-12-14T13:53:12.738Z,95809.50
2022-12-14T13:55:51.803Z,95827.66
2022-12-14T13:58:23.875Z,95834.69
2022-12-14T14:01:02.498Z,95832.72
2022-12-14T14:04:04.921Z,95828.06
2022-12-14T14:06:41.216Z,95819.28
2022-12-14T14:10:01.087Z,95813.91
2022-12-14T14:12:43.300Z,95822.44
2022-12-14T14:15:34.366Z,95820.53
2022-12-14T14:18:24.984Z,95829.72
2022-12-14T14:20:58.858Z,95825.06
2022-12-14T14:23:57.810Z,95829.97
2022-12-14T14:26:29.579Z,95824.94
2022-12-14T14:29:26.398Z,95819.53
2022-12-14T14:32:00.839Z,95834.25
2022-12-14T14:34:50.134Z,95838.38
2022-12-14T14:37:30.534Z,95840.03
2022-12-14T14:40:43.788Z,95831.25
2022-12-14T14:43:26.691Z,95828.63
2022-12-14T14:45:57.929Z,95829.56
2022-12-14T14:48:34.557Z,95818.31
2022-12-14T14:51:08.272Z,95829.28
2022-12-14T14:53:37.855Z,95821.31
2022-12-14T14:56:29.107Z,95822.84
2022-12-14T14:59:41.241Z,95837.56
2022-12-14T15:02:35.350Z,95838.38
2022-12-14T15:05:33.140Z,95839.06
2022-12-14T15:07:56.712Z,95855.44
2022-12-14T15:10:33.824Z,95863.81
2022-12-14T15:13:08.810Z,95846.91
2022-12-14T15:15:42.944Z,95839.75
2022-12-14T15:18:22.698Z,95837.81
2022-12-14T15:20:59.260Z,95845.38
2022-12-14T15:23:35.754Z,95850.31
2022-12-14T15:26:16.525Z,95853.47
2022-12-14T15:28:51.617Z,95847.13
2022-12-14T15:31:29.239Z,95832.16
2022-12-14T15:33:58.932Z,95840.56
2022-12-14T15:36:32.062Z,95849.91
2022-12-14T15:39:00.960Z,95850.69
2022-12-14T15:41:33.241Z,95851.25
2022-12-14T15:44:03.187Z,95850.28
2022-12-14T15:46:34.433Z,95845.75
2022-12-14T15:49:05.580Z,95840.22
2022-12-14T15:51:37.242Z,95847.09
2022-12-14T15:54:08.723Z,95852.31
2022-12-14T15:56:40.676Z,95865.25
2022-12-14T15:59:18.255Z,95861.84
2022-12-14T16:01:58.958Z,95866.09
2022-12-14T16:04:32.851Z,95866.09
2022-12-14T16:07:09.011Z,95867.59
2022-12-14T16:09:41.527Z,95885.75
2022-12-14T16:12:19.276Z,95890.84
2022-12-14T16:14:54.270Z,95876.81
2022-12-14T16:17:27.822Z,95883.56
2022-12-14T16:19:59.941Z,95891.25
2022-12-14T16:22:30.259Z,95885.06
2022-12-14T16:25:19.251Z,95883.13
2022-12-14T16:27:50.831Z,95885.59
2022-12-14T16:30:30.709Z,95885.59
2022-12-14T16:33:18.835Z,95888.09
2022-12-14T16:35:49.177Z,95878.47
2022-12-14T16:38:19.078Z,95874.88
2022-12-14T16:40:57.215Z,95876.50
2022-12-14T16:43:30.973Z,95889.44
2022-12-14T16:46:16.128Z,95902.38
2022-12-14T16:49:01.960Z,95914.38
2022-12-14T16:52:06.874Z,95932.81
2022-12-14T16:54:29.582Z,95933.75
2022-12-14T16:57:02.866Z,95935.59
2022-12-14T16:59:44.035Z,95938.19
2022-12-14T17:02:33.553Z,95926.91
2022-12-14T17:05:07.253Z,95923.31
2022-12-14T17:07:38.593Z,95931.16
2022-12-14T17:10:15.213Z,95934.59
2022-12-14T17:12:45.232Z,95924.97
2022-12-14T17:15:15.210Z,95936.25
2022-12-14T17:17:49.528Z,95942.31
2022-12-14T17:20:24.230Z,95949.31
2022-12-14T17:22:52.986Z,95954.28
2022-12-14T17:25:22.130Z,95961.31
2022-12-14T17:27:50.415Z,95964.59
2022-12-14T17:30:21.590Z,95976.72
2022-12-14T17:32:52.216Z,95980.16
2022-12-14T17:35:24.889Z,95979.34
2022-12-14T17:37:53.424Z,95986.22
2022-12-14T17:40:21.783Z,95993.94
2022-12-14T17:42:54.889Z,95991.31
2022-12-14T17:45:26.239Z,95991.31
2022-12-14T17:47:56.591Z,96002.59
2022-12-14T17:50:26.058Z,96006.88
2022-12-14T17:52:54.342Z,96003.41
2022-12-14T17:55:26.769Z,96005.06
2022-12-14T17:57:55.859Z,96015.66
2022-12-14T18:00:44.531Z,96017.19
2022-12-14T18:03:17.004Z,96017.19
2022-12-14T18:05:49.378Z,96014.59
2022-12-14T18:08:17.919Z,96011.00
2022-12-14T18:10:47.050Z,96015.38
2022-12-14T18:13:15.530Z,96023.25
2022-12-14T18:15:49.915Z,96015.53
2022-12-14T18:18:21.344Z,96025.19
2022-12-14T18:20:54.032Z,96028.59
2022-12-14T18:23:22.968Z,96030.41
2022-12-14T18:25:53.901Z,96032.91
2022-12-14T18:28:22.817Z,96034.53
2022-12-14T18:30:55.467Z,96036.31
2022-12-14T18:33:27.337Z,96031.09
2022-12-14T18:35:57.771Z,96031.09
2022-12-14T18:38:26.936Z,96040.63
2022-12-14T18:40:58.608Z,96044.03
2022-12-14T18:43:29.518Z,96045.69
2022-12-14T18:45:59.244Z,96046.38
2022-12-14T18:48:29.044Z,96049.00
2022-12-14T18:50:57.574Z,96053.28
2022-12-14T18:53:27.039Z,96055.91
2022-12-14T18:55:55.624Z,96067.16
2022-12-14T18:58:26.800Z,96067.16
2022-12-14T19:00:58.475Z,96073.38
2022-12-14T19:03:31.078Z,96077.63
2022-12-14T19:06:42.372Z,96076.97
2022-12-14T19:08:57.066Z,96084.13
2022-12-14T19:11:31.848Z,96078.88
2022-12-14T19:14:00.720Z,96089.22
2022-12-14T19:16:29.598Z,96092.66
2022-12-14T19:18:59.716Z,96105.88
2022-12-14T19:21:29.421Z,96102.28
2022-12-14T19:23:59.763Z,96105.63
2022-12-14T19:26:29.247Z,96096.94
2022-12-14T19:28:58.540Z,96095.28
2022-12-14T19:31:27.189Z,96095.28
2022-12-14T19:33:55.857Z,96091.69
2022-12-14T19:36:26.172Z,96083.00
2022-12-14T19:38:54.455Z,96078.59
2022-12-14T19:41:22.746Z,96083.84
2022-12-14T19:43:51.103Z,96095.16
2022-12-14T19:46:19.388Z,96095.94
2022-12-14T19:48:47.832Z,96091.56
2022-12-14T19:51:21.507Z,96092.38
2022-12-14T19:53:52.867Z,96087.97
2022-12-14T19:56:21.121Z,96080.94
2022-12-14T19:58:49.472Z,96095.81
2022-12-14T20:01:19.148Z,96097.47
2022-12-14T20:03:49.038Z,96098.28
2022-12-14T20:06:17.574Z,96095.53
2022-12-14T20:08:49.338Z,96097.34
2022-12-14T20:11:20.413Z,96099.00
2022-12-14T20:13:54.697Z,96102.44
2022-12-14T20:16:25.863Z,96105.19
2022-12-14T20:18:55.143Z,96105.19
2022-12-14T20:21:23.727Z,96119.22
2022-12-14T20:23:52.110Z,96130.53
2022-12-14T20:26:23.650Z,96136.88
2022-12-14T20:28:55.114Z,96137.16
2022-12-14T20:31:24.478Z,96141.41
2022-12-14T20:33:53.250Z,96150.22
2022-12-14T20:36:22.564Z,96146.91
2022-12-14T20:38:57.670Z,96144.44
2022-12-14T20:41:27.451Z,96151.44
2022-12-14T20:43:56.001Z,96145.53
2022-12-14T20:46:31.523Z,96149.09
2022-12-14T20:49:02.123Z,96155.16
2022-12-14T20:51:31.515Z,96150.78
2022-12-14T20:54:00.261Z,96159.56
2022-12-14T20:56:30.084Z,96158.75
2022-12-14T20:58:58.832Z,96153.53
2022-12-14T21:01:27.581Z,96162.19
2022-12-14T21:03:57.673Z,96163.03
2022-12-14T21:06:26.379Z,96171.72
2022-12-14T21:09:05.281Z,96180.66
2022-12-14T21:11:54.877Z,96178.03
2022-12-14T21:14:25.712Z,96181.47
2022-12-14T21:16:54.325Z,96188.50
2022-12-14T21:19:22.935Z,96183.53
2022-12-14T21:21:54.029Z,96196.34
2022-12-14T21:25:01.221Z,96209.72
2022-12-14T21:27:19.677Z,96202.25
2022-12-14T21:29:48.336Z,96204.16
2022-12-14T21:32:18.991Z,96211.31
2022-12-14T21:34:48.363Z,96207.91
2022-12-14T21:37:16.942Z,96211.44
2022-12-14T21:39:51.890Z,96214.91
2022-12-14T21:42:21.955Z,96219.31
2022-12-14T21:44:52.528Z,96212.41
2022-12-14T21:47:24.012Z,96224.53
2022-12-14T21:49:52.213Z,96224.53
2022-12-14T21:52:24.025Z,96221.09
2022-12-14T21:54:52.331Z,96220.28
2022-12-14T21:57:41.527Z,96228.25
2022-12-14T22:00:12.534Z,96226.75
2022-12-14T22:02:42.596Z,96235.38
2022-12-14T22:05:11.686Z,96235.53
2022-12-14T22:07:40.098Z,96238.28
2022-12-14T22:10:09.161Z,96240.88
2022-12-14T22:12:38.756Z,96235.66
2022-12-14T22:15:08.308Z,96244.47
2022-12-14T22:17:36.592Z,96246.25
2022-12-14T22:20:05.720Z,96256.59
2022-12-14T22:22:34.596Z,96254.94
2022-12-14T22:25:03.516Z,96260.16
2022-12-14T22:27:31.704Z,96256.72
2022-12-14T22:30:01.378Z,96256.84
2022-12-14T22:32:29.714Z,96265.66
2022-12-14T22:34:57.992Z,96274.59
2022-12-14T22:37:26.226Z,96268.53
2022-12-14T22:39:54.525Z,96271.16
2022-12-14T22:42:22.748Z,96258.22
2022-12-14T22:44:51.012Z,96271.28
2022-12-14T22:47:20.693Z,96263.56
2022-12-14T22:49:48.986Z,96249.66
2022-12-14T22:52:22.933Z,96256.69
2022-12-14T22:54:52.647Z,96260.25
2022-12-14T22:57:23.003Z,96264.78
2022-12-14T22:59:57.204Z,96270.16
2022-12-14T23:02:26.976Z,96269.31
2022-12-14T23:04:55.402Z,96267.69
2022-12-14T23:07:23.755Z,96272.91
2022-12-14T23:10:09.488Z,96262.44
2022-12-14T23:12:55.005Z,96262.56
2022-12-14T23:15:41.031Z,96270.41
2022-12-14T23:18:28.091Z,96271.47
2022-12-14T23:21:14.280Z,96266.38
2022-12-14T23:24:03.198Z,96272.59
2022-12-14T23:26:49.627Z,96276.31
2022-12-14T23:29:35.679Z,96283.44
2022-12-14T23:32:21.355Z,96281.66
2022-12-14T23:35:08.569Z,96294.84
2022-12-14T23:37:54.151Z,96291.53
2022-12-14T23:40:39.812Z,96293.22
2022-12-14T23:43:29.281Z,96295.94
2022-12-14T23:46:15.354Z,96291.66
2022-12-14T23:49:01.340Z,96294.28
2022-12-14T23:51:48.365Z,96291.78
2022-12-14T23:54:34.444Z,96296.09
2022-12-14T23:57:22.755Z,96288.13
